sensor_id;sensor_type;location;lat;lon;timestamp;P1;durP1;ratioP1;P2;durP2;ratioP2
75071;SDS011;63651;55.728;38.022;2024-02-14T00:01:24;5.68;;;3.95;;
75071;SDS011;63651;55.728;38.022;2024-02-14T00:06:27;5.25;;;3.90;;
75071;SDS011;63651;55.728;38.022;2024-02-14T00:11:30;5.07;;;4.07;;
75071;SDS011;63651;55.728;38.022;2024-02-14T00:16:33;4.90;;;3.33;;
75071;SDS011;63651;55.728;38.022;2024-02-14T00:21:37;5.35;;;4.07;;
75071;SDS011;63651;55.728;38.022;2024-02-14T00:26:40;5.97;;;4.25;;
75071;SDS011;63651;55.728;38.022;2024-02-14T00:31:43;5.25;;;3.85;;
75071;SDS011;63651;55.728;38.022;2024-02-14T00:36:46;4.10;;;3.47;;
75071;SDS011;63651;55.728;38.022;2024-02-14T00:41:48;5.82;;;3.50;;
75071;SDS011;63651;55.728;38.022;2024-02-14T00:46:55;5.45;;;3.72;;
75071;SDS011;63651;55.728;38.022;2024-02-14T00:51:59;4.72;;;3.70;;
75071;SDS011;63651;55.728;38.022;2024-02-14T00:57:01;7.65;;;4.55;;
75071;SDS011;63651;55.728;38.022;2024-02-14T01:02:06;6.43;;;4.13;;
75071;SDS011;63651;55.728;38.022;2024-02-14T01:07:08;5.57;;;3.83;;
75071;SDS011;63651;55.728;38.022;2024-02-14T01:12:10;6.15;;;4.10;;
75071;SDS011;63651;55.728;38.022;2024-02-14T01:17:13;6.82;;;4.00;;
75071;SDS011;63651;55.728;38.022;2024-02-14T01:22:16;4.90;;;3.97;;
75071;SDS011;63651;55.728;38.022;2024-02-14T01:27:17;5.07;;;3.45;;
75071;SDS011;63651;55.728;38.022;2024-02-14T01:32:20;6.22;;;4.47;;
75071;SDS011;63651;55.728;38.022;2024-02-14T01:37:23;6.20;;;4.22;;
75071;SDS011;63651;55.728;38.022;2024-02-14T01:42:26;6.03;;;4.35;;
75071;SDS011;63651;55.728;38.022;2024-02-14T01:47:29;5.97;;;4.10;;
75071;SDS011;63651;55.728;38.022;2024-02-14T01:52:33;5.50;;;3.90;;
75071;SDS011;63651;55.728;38.022;2024-02-14T01:57:36;6.40;;;3.88;;
75071;SDS011;63651;55.728;38.022;2024-02-14T02:02:40;6.88;;;4.68;;
75071;SDS011;63651;55.728;38.022;2024-02-14T02:07:42;6.72;;;4.18;;
75071;SDS011;63651;55.728;38.022;2024-02-14T02:12:45;5.50;;;3.92;;
75071;SDS011;63651;55.728;38.022;2024-02-14T02:17:47;5.07;;;4.00;;
75071;SDS011;63651;55.728;38.022;2024-02-14T02:22:53;6.25;;;4.40;;
75071;SDS011;63651;55.728;38.022;2024-02-14T02:27:55;5.55;;;4.20;;
75071;SDS011;63651;55.728;38.022;2024-02-14T02:32:57;7.43;;;4.45;;
75071;SDS011;63651;55.728;38.022;2024-02-14T02:38:00;4.47;;;3.33;;
75071;SDS011;63651;55.728;38.022;2024-02-14T02:43:01;5.40;;;3.90;;
75071;SDS011;63651;55.728;38.022;2024-02-14T02:48:05;6.32;;;4.00;;
75071;SDS011;63651;55.728;38.022;2024-02-14T02:53:08;6.60;;;4.00;;
75071;SDS011;63651;55.728;38.022;2024-02-14T02:58:10;7.03;;;4.30;;
75071;SDS011;63651;55.728;38.022;2024-02-14T03:03:12;5.93;;;4.53;;
75071;SDS011;63651;55.728;38.022;2024-02-14T03:08:15;4.60;;;3.67;;
75071;SDS011;63651;55.728;38.022;2024-02-14T03:13:17;5.45;;;3.80;;
75071;SDS011;63651;55.728;38.022;2024-02-14T03:18:19;5.40;;;4.05;;
75071;SDS011;63651;55.728;38.022;2024-02-14T03:23:21;4.65;;;3.60;;
75071;SDS011;63651;55.728;38.022;2024-02-14T03:28:23;5.80;;;4.00;;
75071;SDS011;63651;55.728;38.022;2024-02-14T03:33:26;5.80;;;4.10;;
75071;SDS011;63651;55.728;38.022;2024-02-14T03:38:30;5.82;;;3.67;;
75071;SDS011;63651;55.728;38.022;2024-02-14T03:43:32;5.75;;;4.22;;
75071;SDS011;63651;55.728;38.022;2024-02-14T03:48:34;5.88;;;4.00;;
75071;SDS011;63651;55.728;38.022;2024-02-14T03:53:37;6.05;;;4.30;;
75071;SDS011;63651;55.728;38.022;2024-02-14T03:58:39;5.50;;;4.00;;
75071;SDS011;63651;55.728;38.022;2024-02-14T04:03:41;7.30;;;4.32;;
75071;SDS011;63651;55.728;38.022;2024-02-14T04:08:43;7.18;;;5.07;;
75071;SDS011;63651;55.728;38.022;2024-02-14T04:13:46;8.82;;;5.35;;
75071;SDS011;63651;55.728;38.022;2024-02-14T04:18:48;9.30;;;5.07;;
75071;SDS011;63651;55.728;38.022;2024-02-14T04:23:50;10.38;;;6.18;;
75071;SDS011;63651;55.728;38.022;2024-02-14T04:28:52;9.48;;;5.72;;
75071;SDS011;63651;55.728;38.022;2024-02-14T04:33:55;10.52;;;5.43;;
75071;SDS011;63651;55.728;38.022;2024-02-14T04:38:57;8.40;;;5.03;;
75071;SDS011;63651;55.728;38.022;2024-02-14T04:43:59;8.10;;;4.43;;
75071;SDS011;63651;55.728;38.022;2024-02-14T04:49:02;10.80;;;5.00;;
75071;SDS011;63651;55.728;38.022;2024-02-14T04:54:03;6.00;;;4.75;;
75071;SDS011;63651;55.728;38.022;2024-02-14T04:59:06;7.43;;;4.57;;
75071;SDS011;63651;55.728;38.022;2024-02-14T05:04:09;6.78;;;4.32;;
75071;SDS011;63651;55.728;38.022;2024-02-14T05:09:13;6.20;;;4.28;;
75071;SDS011;63651;55.728;38.022;2024-02-14T05:14:16;6.65;;;4.32;;
75071;SDS011;63651;55.728;38.022;2024-02-14T05:19:18;4.78;;;3.92;;
75071;SDS011;63651;55.728;38.022;2024-02-14T05:24:22;6.40;;;4.07;;
75071;SDS011;63651;55.728;38.022;2024-02-14T05:29:28;5.65;;;3.97;;
75071;SDS011;63651;55.728;38.022;2024-02-14T05:34:31;5.55;;;3.88;;
75071;SDS011;63651;55.728;38.022;2024-02-14T05:39:32;9.10;;;4.00;;
75071;SDS011;63651;55.728;38.022;2024-02-14T05:44:35;6.53;;;3.97;;
75071;SDS011;63651;55.728;38.022;2024-02-14T05:49:38;5.47;;;3.85;;
75071;SDS011;63651;55.728;38.022;2024-02-14T05:54:41;9.35;;;5.20;;
75071;SDS011;63651;55.728;38.022;2024-02-14T05:59:44;6.88;;;4.53;;
75071;SDS011;63651;55.728;38.022;2024-02-14T06:04:46;6.20;;;3.90;;
75071;SDS011;63651;55.728;38.022;2024-02-14T06:09:48;9.93;;;6.15;;
75071;SDS011;63651;55.728;38.022;2024-02-14T06:14:50;7.90;;;5.20;;
75071;SDS011;63651;55.728;38.022;2024-02-14T06:19:53;6.65;;;4.55;;
75071;SDS011;63651;55.728;38.022;2024-02-14T06:24:54;7.68;;;4.78;;
75071;SDS011;63651;55.728;38.022;2024-02-14T06:29:57;7.47;;;4.90;;
75071;SDS011;63651;55.728;38.022;2024-02-14T06:35:01;6.45;;;4.53;;
75071;SDS011;63651;55.728;38.022;2024-02-14T06:40:04;6.68;;;4.40;;
75071;SDS011;63651;55.728;38.022;2024-02-14T06:45:09;6.28;;;4.93;;
75071;SDS011;63651;55.728;38.022;2024-02-14T06:50:12;7.00;;;4.22;;
75071;SDS011;63651;55.728;38.022;2024-02-14T06:55:14;6.38;;;4.60;;
75071;SDS011;63651;55.728;38.022;2024-02-14T07:00:16;6.22;;;4.30;;
75071;SDS011;63651;55.728;38.022;2024-02-14T07:05:18;6.15;;;3.95;;
75071;SDS011;63651;55.728;38.022;2024-02-14T07:10:20;6.65;;;4.47;;
75071;SDS011;63651;55.728;38.022;2024-02-14T07:15:22;6.75;;;4.50;;
75071;SDS011;63651;55.728;38.022;2024-02-14T07:20:27;6.72;;;4.72;;
75071;SDS011;63651;55.728;38.022;2024-02-14T07:25:30;6.63;;;4.88;;
75071;SDS011;63651;55.728;38.022;2024-02-14T07:30:33;7.00;;;4.65;;
75071;SDS011;63651;55.728;38.022;2024-02-14T07:35:38;6.97;;;4.80;;
75071;SDS011;63651;55.728;38.022;2024-02-14T07:40:40;5.78;;;4.72;;
75071;SDS011;63651;55.728;38.022;2024-02-14T07:45:43;6.72;;;5.03;;
75071;SDS011;63651;55.728;38.022;2024-02-14T07:50:45;7.05;;;4.93;;
75071;SDS011;63651;55.728;38.022;2024-02-14T07:55:46;7.93;;;5.00;;
75071;SDS011;63651;55.728;38.022;2024-02-14T08:00:48;6.53;;;4.93;;
75071;SDS011;63651;55.728;38.022;2024-02-14T08:05:50;6.95;;;4.53;;
75071;SDS011;63651;55.728;38.022;2024-02-14T08:10:52;5.53;;;4.13;;
75071;SDS011;63651;55.728;38.022;2024-02-14T08:15:55;5.35;;;4.35;;
75071;SDS011;63651;55.728;38.022;2024-02-14T08:20:59;6.38;;;4.25;;
75071;SDS011;63651;55.728;38.022;2024-02-14T08:26:02;5.55;;;4.25;;
75071;SDS011;63651;55.728;38.022;2024-02-14T08:31:11;7.15;;;4.90;;
75071;SDS011;63651;55.728;38.022;2024-02-14T08:36:14;8.88;;;5.20;;
75071;SDS011;63651;55.728;38.022;2024-02-14T08:41:18;7.63;;;4.93;;
75071;SDS011;63651;55.728;38.022;2024-02-14T08:46:19;6.00;;;4.40;;
75071;SDS011;63651;55.728;38.022;2024-02-14T08:51:24;6.30;;;4.50;;
75071;SDS011;63651;55.728;38.022;2024-02-14T08:56:26;5.82;;;3.85;;
75071;SDS011;63651;55.728;38.022;2024-02-14T09:01:29;7.07;;;4.45;;
75071;SDS011;63651;55.728;38.022;2024-02-14T09:06:31;5.63;;;4.00;;
75071;SDS011;63651;55.728;38.022;2024-02-14T09:11:34;6.53;;;5.00;;
75071;SDS011;63651;55.728;38.022;2024-02-14T09:16:37;6.25;;;4.25;;
75071;SDS011;63651;55.728;38.022;2024-02-14T09:21:40;5.25;;;4.45;;
75071;SDS011;63651;55.728;38.022;2024-02-14T09:26:42;5.97;;;4.53;;
75071;SDS011;63651;55.728;38.022;2024-02-14T09:31:44;6.22;;;4.50;;
75071;SDS011;63651;55.728;38.022;2024-02-14T09:36:48;5.90;;;4.60;;
75071;SDS011;63651;55.728;38.022;2024-02-14T09:41:51;6.47;;;4.70;;
75071;SDS011;63651;55.728;38.022;2024-02-14T09:46:56;7.03;;;4.80;;
75071;SDS011;63651;55.728;38.022;2024-02-14T09:51:59;7.13;;;5.22;;
75071;SDS011;63651;55.728;38.022;2024-02-14T09:57:04;6.18;;;4.25;;
75071;SDS011;63651;55.728;38.022;2024-02-14T10:02:06;6.13;;;4.47;;
75071;SDS011;63651;55.728;38.022;2024-02-14T10:07:10;7.30;;;5.30;;
75071;SDS011;63651;55.728;38.022;2024-02-14T10:12:13;6.55;;;4.68;;
75071;SDS011;63651;55.728;38.022;2024-02-14T10:17:18;7.60;;;5.18;;
75071;SDS011;63651;55.728;38.022;2024-02-14T10:22:20;7.03;;;4.82;;
75071;SDS011;63651;55.728;38.022;2024-02-14T10:27:23;5.40;;;4.68;;
75071;SDS011;63651;55.728;38.022;2024-02-14T10:32:27;5.97;;;4.57;;
75071;SDS011;63651;55.728;38.022;2024-02-14T10:37:29;6.47;;;4.72;;
75071;SDS011;63651;55.728;38.022;2024-02-14T10:42:32;6.53;;;5.57;;
75071;SDS011;63651;55.728;38.022;2024-02-14T10:47:35;6.05;;;4.68;;
75071;SDS011;63651;55.728;38.022;2024-02-14T10:52:37;6.40;;;4.75;;
75071;SDS011;63651;55.728;38.022;2024-02-14T10:57:43;7.20;;;4.93;;
75071;SDS011;63651;55.728;38.022;2024-02-14T11:02:47;5.80;;;4.47;;
75071;SDS011;63651;55.728;38.022;2024-02-14T11:07:50;6.53;;;5.15;;
75071;SDS011;63651;55.728;38.022;2024-02-14T11:12:54;6.50;;;4.82;;
75071;SDS011;63651;55.728;38.022;2024-02-14T11:18:03;5.93;;;4.88;;
75071;SDS011;63651;55.728;38.022;2024-02-14T11:23:08;7.00;;;5.10;;
75071;SDS011;63651;55.728;38.022;2024-02-14T11:28:15;7.65;;;5.40;;
75071;SDS011;63651;55.728;38.022;2024-02-14T11:33:21;9.15;;;5.75;;
75071;SDS011;63651;55.728;38.022;2024-02-14T11:38:25;7.10;;;5.45;;
75071;SDS011;63651;55.728;38.022;2024-02-14T11:43:31;7.47;;;5.43;;
75071;SDS011;63651;55.728;38.022;2024-02-14T11:48:33;8.05;;;6.28;;
75071;SDS011;63651;55.728;38.022;2024-02-14T11:53:35;7.35;;;5.88;;
75071;SDS011;63651;55.728;38.022;2024-02-14T11:58:37;7.65;;;6.20;;
75071;SDS011;63651;55.728;38.022;2024-02-14T12:03:40;9.90;;;6.68;;
75071;SDS011;63651;55.728;38.022;2024-02-14T12:08:42;6.90;;;5.20;;
75071;SDS011;63651;55.728;38.022;2024-02-14T12:13:48;7.55;;;6.25;;
75071;SDS011;63651;55.728;38.022;2024-02-14T12:19:00;7.53;;;5.93;;
75071;SDS011;63651;55.728;38.022;2024-02-14T12:24:12;7.15;;;5.88;;
75071;SDS011;63651;55.728;38.022;2024-02-14T12:29:15;8.43;;;5.70;;
75071;SDS011;63651;55.728;38.022;2024-02-14T12:34:19;7.93;;;6.10;;
75071;SDS011;63651;55.728;38.022;2024-02-14T12:39:21;8.27;;;5.72;;
75071;SDS011;63651;55.728;38.022;2024-02-14T12:44:24;7.40;;;5.70;;
75071;SDS011;63651;55.728;38.022;2024-02-14T12:49:26;5.50;;;4.63;;
75071;SDS011;63651;55.728;38.022;2024-02-14T12:54:28;6.85;;;4.70;;
75071;SDS011;63651;55.728;38.022;2024-02-14T12:59:31;6.95;;;5.60;;
75071;SDS011;63651;55.728;38.022;2024-02-14T13:04:33;7.43;;;5.35;;
75071;SDS011;63651;55.728;38.022;2024-02-14T13:09:36;7.00;;;5.05;;
75071;SDS011;63651;55.728;38.022;2024-02-14T13:14:39;7.47;;;4.97;;
75071;SDS011;63651;55.728;38.022;2024-02-14T13:19:41;6.68;;;4.97;;
75071;SDS011;63651;55.728;38.022;2024-02-14T13:24:47;6.78;;;5.00;;
75071;SDS011;63651;55.728;38.022;2024-02-14T13:29:49;5.20;;;4.18;;
75071;SDS011;63651;55.728;38.022;2024-02-14T13:34:51;5.82;;;4.63;;
75071;SDS011;63651;55.728;38.022;2024-02-14T13:39:54;6.50;;;4.18;;
75071;SDS011;63651;55.728;38.022;2024-02-14T13:44:56;4.55;;;3.85;;
75071;SDS011;63651;55.728;38.022;2024-02-14T13:49:58;5.32;;;3.65;;
75071;SDS011;63651;55.728;38.022;2024-02-14T13:55:01;6.47;;;4.10;;
75071;SDS011;63651;55.728;38.022;2024-02-14T14:00:04;6.63;;;4.00;;
75071;SDS011;63651;55.728;38.022;2024-02-14T14:05:12;4.90;;;3.50;;
75071;SDS011;63651;55.728;38.022;2024-02-14T14:10:15;4.18;;;2.88;;
75071;SDS011;63651;55.728;38.022;2024-02-14T14:15:18;6.38;;;3.30;;
75071;SDS011;63651;55.728;38.022;2024-02-14T14:20:20;5.03;;;3.33;;
75071;SDS011;63651;55.728;38.022;2024-02-14T14:25:22;5.47;;;3.75;;
75071;SDS011;63651;55.728;38.022;2024-02-14T14:30:25;5.65;;;3.60;;
75071;SDS011;63651;55.728;38.022;2024-02-14T14:35:29;5.13;;;3.13;;
75071;SDS011;63651;55.728;38.022;2024-02-14T14:40:34;5.93;;;3.80;;
75071;SDS011;63651;55.728;38.022;2024-02-14T14:45:38;5.47;;;4.07;;
75071;SDS011;63651;55.728;38.022;2024-02-14T14:50:40;7.07;;;3.67;;
75071;SDS011;63651;55.728;38.022;2024-02-14T14:55:56;5.45;;;3.30;;
75071;SDS011;63651;55.728;38.022;2024-02-14T15:01:14;4.95;;;3.35;;
75071;SDS011;63651;55.728;38.022;2024-02-14T15:06:16;5.95;;;3.25;;
75071;SDS011;63651;55.728;38.022;2024-02-14T15:11:18;6.85;;;3.85;;
75071;SDS011;63651;55.728;38.022;2024-02-14T15:16:22;10.23;;;3.97;;
75071;SDS011;63651;55.728;38.022;2024-02-14T15:21:24;10.13;;;4.53;;
75071;SDS011;63651;55.728;38.022;2024-02-14T15:26:27;11.35;;;4.65;;
75071;SDS011;63651;55.728;38.022;2024-02-14T15:31:31;11.02;;;4.57;;
75071;SDS011;63651;55.728;38.022;2024-02-14T15:36:52;10.27;;;4.22;;
75071;SDS011;63651;55.728;38.022;2024-02-14T15:41:55;8.32;;;3.65;;
75071;SDS011;63651;55.728;38.022;2024-02-14T15:46:58;9.23;;;5.30;;
75071;SDS011;63651;55.728;38.022;2024-02-14T15:52:00;9.50;;;5.18;;
75071;SDS011;63651;55.728;38.022;2024-02-14T15:57:03;9.05;;;4.95;;
75071;SDS011;63651;55.728;38.022;2024-02-14T16:02:06;8.43;;;4.53;;
75071;SDS011;63651;55.728;38.022;2024-02-14T16:07:08;8.82;;;5.03;;
75071;SDS011;63651;55.728;38.022;2024-02-14T16:12:10;7.03;;;4.53;;
75071;SDS011;63651;55.728;38.022;2024-02-14T16:17:13;8.63;;;4.65;;
75071;SDS011;63651;55.728;38.022;2024-02-14T16:22:15;8.98;;;4.85;;
75071;SDS011;63651;55.728;38.022;2024-02-14T16:27:18;10.13;;;4.90;;
75071;SDS011;63651;55.728;38.022;2024-02-14T16:32:20;8.88;;;4.90;;
75071;SDS011;63651;55.728;38.022;2024-02-14T16:37:22;10.13;;;5.35;;
75071;SDS011;63651;55.728;38.022;2024-02-14T16:42:24;8.95;;;5.25;;
75071;SDS011;63651;55.728;38.022;2024-02-14T16:47:27;9.05;;;4.88;;
75071;SDS011;63651;55.728;38.022;2024-02-14T16:52:30;7.95;;;5.03;;
75071;SDS011;63651;55.728;38.022;2024-02-14T16:57:33;7.53;;;4.68;;
75071;SDS011;63651;55.728;38.022;2024-02-14T17:02:36;7.45;;;3.78;;
75071;SDS011;63651;55.728;38.022;2024-02-14T17:07:38;8.98;;;4.47;;
75071;SDS011;63651;55.728;38.022;2024-02-14T17:12:40;8.63;;;4.30;;
75071;SDS011;63651;55.728;38.022;2024-02-14T17:17:43;6.68;;;3.95;;
75071;SDS011;63651;55.728;38.022;2024-02-14T17:22:46;6.57;;;4.07;;
75071;SDS011;63651;55.728;38.022;2024-02-14T17:27:49;16.80;;;4.20;;
75071;SDS011;63651;55.728;38.022;2024-02-14T17:32:51;26.60;;;7.30;;
75071;SDS011;63651;55.728;38.022;2024-02-14T17:37:53;18.95;;;6.40;;
75071;SDS011;63651;55.728;38.022;2024-02-14T17:42:57;15.90;;;5.13;;
75071;SDS011;63651;55.728;38.022;2024-02-14T17:47:58;17.30;;;4.65;;
75071;SDS011;63651;55.728;38.022;2024-02-14T17:53:02;12.38;;;4.70;;
75071;SDS011;63651;55.728;38.022;2024-02-14T17:58:08;10.93;;;4.70;;
75071;SDS011;63651;55.728;38.022;2024-02-14T18:03:10;12.00;;;4.55;;
75071;SDS011;63651;55.728;38.022;2024-02-14T18:08:13;10.52;;;4.88;;
75071;SDS011;63651;55.728;38.022;2024-02-14T18:13:16;9.05;;;4.30;;
75071;SDS011;63651;55.728;38.022;2024-02-14T18:18:18;9.02;;;4.80;;
75071;SDS011;63651;55.728;38.022;2024-02-14T18:23:21;12.73;;;5.10;;
75071;SDS011;63651;55.728;38.022;2024-02-14T18:28:24;8.48;;;4.32;;
75071;SDS011;63651;55.728;38.022;2024-02-14T18:33:26;9.32;;;4.60;;
75071;SDS011;63651;55.728;38.022;2024-02-14T18:38:29;8.90;;;4.40;;
75071;SDS011;63651;55.728;38.022;2024-02-14T18:43:33;8.93;;;4.53;;
75071;SDS011;63651;55.728;38.022;2024-02-14T18:48:36;9.82;;;4.22;;
75071;SDS011;63651;55.728;38.022;2024-02-14T18:53:40;7.22;;;4.45;;
75071;SDS011;63651;55.728;38.022;2024-02-14T18:58:45;9.65;;;4.75;;
75071;SDS011;63651;55.728;38.022;2024-02-14T19:03:50;8.40;;;5.18;;
75071;SDS011;63651;55.728;38.022;2024-02-14T19:08:54;8.70;;;5.30;;
75071;SDS011;63651;55.728;38.022;2024-02-14T19:13:57;11.07;;;5.47;;
75071;SDS011;63651;55.728;38.022;2024-02-14T19:18:59;9.35;;;4.82;;
75071;SDS011;63651;55.728;38.022;2024-02-14T19:24:02;7.78;;;5.28;;
75071;SDS011;63651;55.728;38.022;2024-02-14T19:29:06;7.68;;;4.80;;
75071;SDS011;63651;55.728;38.022;2024-02-14T19:34:11;8.02;;;5.28;;
75071;SDS011;63651;55.728;38.022;2024-02-14T19:39:12;7.18;;;5.10;;
75071;SDS011;63651;55.728;38.022;2024-02-14T19:44:17;8.13;;;5.03;;
75071;SDS011;63651;55.728;38.022;2024-02-14T19:49:19;9.38;;;6.05;;
75071;SDS011;63651;55.728;38.022;2024-02-14T19:54:22;9.10;;;5.55;;
75071;SDS011;63651;55.728;38.022;2024-02-14T19:59:25;8.82;;;5.55;;
75071;SDS011;63651;55.728;38.022;2024-02-14T20:04:29;9.85;;;5.82;;
75071;SDS011;63651;55.728;38.022;2024-02-14T20:09:32;7.38;;;5.22;;
75071;SDS011;63651;55.728;38.022;2024-02-14T20:14:35;8.25;;;5.82;;
75071;SDS011;63651;55.728;38.022;2024-02-14T20:19:37;6.85;;;4.93;;
75071;SDS011;63651;55.728;38.022;2024-02-14T20:24:42;7.38;;;5.10;;
75071;SDS011;63651;55.728;38.022;2024-02-14T20:29:43;7.53;;;5.25;;
75071;SDS011;63651;55.728;38.022;2024-02-14T20:34:46;8.52;;;5.40;;
75071;SDS011;63651;55.728;38.022;2024-02-14T20:39:48;7.53;;;5.25;;
75071;SDS011;63651;55.728;38.022;2024-02-14T20:44:51;8.50;;;5.55;;
75071;SDS011;63651;55.728;38.022;2024-02-14T20:49:52;8.02;;;5.70;;
75071;SDS011;63651;55.728;38.022;2024-02-14T20:55:00;9.00;;;5.43;;
75071;SDS011;63651;55.728;38.022;2024-02-14T21:00:02;8.00;;;5.57;;
75071;SDS011;63651;55.728;38.022;2024-02-14T21:05:05;8.35;;;5.40;;
75071;SDS011;63651;55.728;38.022;2024-02-14T21:10:08;7.53;;;4.32;;
75071;SDS011;63651;55.728;38.022;2024-02-14T21:15:12;8.82;;;5.20;;
75071;SDS011;63651;55.728;38.022;2024-02-14T21:20:15;7.75;;;5.20;;
75071;SDS011;63651;55.728;38.022;2024-02-14T21:25:17;8.38;;;4.88;;
75071;SDS011;63651;55.728;38.022;2024-02-14T21:30:18;6.70;;;4.95;;
75071;SDS011;63651;55.728;38.022;2024-02-14T21:35:23;8.85;;;5.00;;
75071;SDS011;63651;55.728;38.022;2024-02-14T21:40:26;9.98;;;5.25;;
75071;SDS011;63651;55.728;38.022;2024-02-14T21:45:30;7.70;;;4.60;;
75071;SDS011;63651;55.728;38.022;2024-02-14T21:50:33;7.93;;;4.68;;
75071;SDS011;63651;55.728;38.022;2024-02-14T21:55:35;8.20;;;5.95;;
75071;SDS011;63651;55.728;38.022;2024-02-14T22:00:38;7.65;;;5.20;;
75071;SDS011;63651;55.728;38.022;2024-02-14T22:05:41;9.48;;;6.05;;
75071;SDS011;63651;55.728;38.022;2024-02-14T22:10:44;8.88;;;5.60;;
75071;SDS011;63651;55.728;38.022;2024-02-14T22:15:46;8.10;;;5.22;;
75071;SDS011;63651;55.728;38.022;2024-02-14T22:20:50;8.45;;;4.75;;
75071;SDS011;63651;55.728;38.022;2024-02-14T22:25:54;9.00;;;5.60;;
75071;SDS011;63651;55.728;38.022;2024-02-14T22:30:56;8.30;;;5.38;;
75071;SDS011;63651;55.728;38.022;2024-02-14T22:35:59;6.57;;;4.90;;
75071;SDS011;63651;55.728;38.022;2024-02-14T22:41:02;8.13;;;5.35;;
75071;SDS011;63651;55.728;38.022;2024-02-14T22:46:05;9.70;;;5.88;;
75071;SDS011;63651;55.728;38.022;2024-02-14T22:51:07;7.07;;;5.05;;
75071;SDS011;63651;55.728;38.022;2024-02-14T22:56:09;7.50;;;5.30;;
75071;SDS011;63651;55.728;38.022;2024-02-14T23:01:12;6.68;;;4.28;;
75071;SDS011;63651;55.728;38.022;2024-02-14T23:06:14;6.43;;;4.47;;
75071;SDS011;63651;55.728;38.022;2024-02-14T23:11:18;7.43;;;4.78;;
75071;SDS011;63651;55.728;38.022;2024-02-14T23:16:22;5.65;;;4.78;;
75071;SDS011;63651;55.728;38.022;2024-02-14T23:21:25;6.80;;;4.30;;
75071;SDS011;63651;55.728;38.022;2024-02-14T23:26:29;6.18;;;4.50;;
75071;SDS011;63651;55.728;38.022;2024-02-14T23:31:31;7.05;;;4.53;;
75071;SDS011;63651;55.728;38.022;2024-02-14T23:36:34;6.78;;;4.63;;
75071;SDS011;63651;55.728;38.022;2024-02-14T23:41:39;7.68;;;4.55;;
75071;SDS011;63651;55.728;38.022;2024-02-14T23:46:41;7.32;;;4.68;;
75071;SDS011;63651;55.728;38.022;2024-02-14T23:51:44;6.93;;;5.05;;
75071;SDS011;63651;55.728;38.022;2024-02-14T23:56:46;7.15;;;4.68;;
